Springmont, Pennsylvania
Current Conditions -  °F | °C
As of 11:54 AM on Friday 19 Dec 2014 (Local Time) from KRDG Reporting Station
Overcast Overcast  
Wind Chill: 32°   Ceiling: 3700
Heat Index: 40°   Visibility: 10mi
Dew Point: 22°   Wind: 15mph
Humidity: 49%   Direction: 320°NW
Pressure: 30.07"   Gusts: NA
Location:  40.3275°N, 75.9966°W
Report Text: KRDG 191654Z 32013KT 10SM OVC037 04/M06 A3007 RMK AO2 SLP191 T00441056
Loading
Personal Weather Stations






























Interactive Weather Map New forecast layout! Learn more

10-Day Weather Forecast

Advertisements
Track Severe Weather on mobile